createdAt,value
2023-02-12T00:00:16.691Z,16.20
2023-02-12T00:02:44.369Z,21.30
2023-02-12T00:05:12.266Z,29.33
2023-02-12T00:07:40.050Z,13.43
2023-02-12T00:10:08.391Z,15.57
2023-02-12T00:12:36.421Z,12.55
2023-02-12T00:15:04.470Z,27.75
2023-02-12T00:17:32.281Z,14.18
2023-02-12T00:20:00.332Z,25.33
2023-02-12T00:22:29.968Z,10.55
2023-02-12T00:24:57.765Z,14.30
2023-02-12T00:27:25.697Z,17.42
2023-02-12T00:29:53.502Z,12.00
2023-02-12T00:32:21.376Z,15.88
2023-02-12T00:34:49.166Z,32.55
2023-02-12T00:37:16.953Z,23.75
2023-02-12T00:39:44.737Z,14.55
2023-02-12T00:42:12.647Z,15.20
2023-02-12T00:44:40.529Z,13.57
2023-02-12T00:47:08.285Z,11.13
2023-02-12T00:49:36.128Z,10.57
2023-02-12T00:52:04.636Z,14.52
2023-02-12T00:54:32.557Z,13.43
2023-02-12T00:57:00.526Z,7.95
2023-02-12T00:59:30.597Z,6.70
2023-02-12T01:01:58.602Z,10.35
2023-02-12T01:04:26.536Z,14.65
2023-02-12T01:06:56.097Z,11.30
2023-02-12T01:09:24.023Z,4.72
2023-02-12T01:11:51.975Z,7.45
2023-02-12T01:14:19.799Z,24.67
2023-02-12T01:16:47.537Z,22.38
2023-02-12T01:19:15.647Z,23.80
2023-02-12T01:21:43.976Z,11.07
2023-02-12T01:24:11.888Z,17.15
2023-02-12T01:26:39.641Z,16.58
2023-02-12T01:29:09.289Z,13.38
2023-02-12T01:31:38.678Z,14.55
2023-02-12T01:34:07.303Z,20.88
2023-02-12T01:36:35.181Z,8.43
2023-02-12T01:39:04.868Z,13.32
2023-02-12T01:41:37.431Z,20.20
2023-02-12T01:44:26.414Z,9.63
2023-02-12T01:47:05.883Z,15.68
2023-02-12T01:49:37.877Z,22.00
2023-02-12T01:52:06.647Z,15.18
2023-02-12T01:54:35.286Z,14.43
2023-02-12T01:57:03.367Z,19.02
2023-02-12T01:59:31.337Z,23.65
2023-02-12T02:02:00.069Z,20.38
2023-02-12T02:04:33.509Z,18.58
2023-02-12T02:07:03.588Z,15.05
2023-02-12T02:09:32.545Z,21.73
2023-02-12T02:12:18.532Z,14.55
2023-02-12T02:14:46.781Z,16.90
2023-02-12T02:17:25.409Z,23.70
2023-02-12T02:20:11.912Z,11.93
2023-02-12T02:22:39.614Z,19.70
2023-02-12T02:25:26.159Z,21.13
2023-02-12T02:28:38.834Z,23.48
2023-02-12T02:31:34.260Z,16.17
2023-02-12T02:34:20.861Z,28.70
2023-02-12T02:37:00.506Z,12.63
2023-02-12T02:39:39.382Z,23.38
2023-02-12T02:42:10.141Z,25.90
2023-02-12T02:44:43.003Z,44.38
2023-02-12T02:47:12.093Z,46.50
2023-02-12T02:49:52.794Z,49.70
2023-02-12T02:52:23.622Z,54.63
2023-02-12T02:54:56.974Z,28.67
2023-02-12T02:57:27.302Z,24.70
2023-02-12T03:00:08.895Z,39.65
2023-02-12T03:02:38.676Z,13.85
2023-02-12T03:05:27.722Z,61.63
2023-02-12T03:07:59.592Z,58.40
2023-02-12T03:13:13.474Z,74.18
2023-02-12T03:15:45.214Z,36.00
2023-02-12T03:18:18.103Z,45.58
2023-02-12T03:20:52.025Z,36.63
2023-02-12T03:23:25.928Z,42.33
2023-02-12T03:26:04.516Z,45.35
2023-02-12T03:28:34.095Z,61.85
2023-02-12T03:31:26.875Z,42.70
2023-02-12T03:34:00.679Z,32.17
2023-02-12T03:36:53.461Z,68.00
2023-02-12T03:39:21.085Z,76.35
2023-02-12T03:41:54.288Z,83.40
2023-02-12T03:44:40.819Z,77.47
2023-02-12T03:47:22.099Z,85.18
2023-02-12T03:50:14.066Z,42.40
2023-02-12T03:52:42.069Z,84.93
2023-02-12T03:55:10.359Z,91.30
2023-02-12T03:57:46.185Z,69.57
2023-02-12T04:00:22.202Z,73.32
2023-02-12T04:02:51.513Z,70.57
2023-02-12T04:05:27.708Z,62.85
2023-02-12T04:07:56.537Z,62.83
2023-02-12T04:10:30.790Z,66.70
2023-02-12T04:13:04.817Z,70.70
2023-02-12T04:16:04.928Z,52.70
2023-02-12T04:18:43.707Z,27.02
2023-02-12T04:21:29.998Z,59.15
2023-02-12T04:24:12.271Z,40.97
2023-02-12T04:29:38.628Z,41.15
2023-02-12T04:32:31.617Z,33.95
2023-02-12T04:35:23.784Z,63.35
2023-02-12T04:37:58.147Z,45.55
2023-02-12T04:40:26.173Z,40.13
2023-02-12T04:42:53.958Z,43.58
2023-02-12T04:45:27.010Z,55.08
2023-02-12T04:47:54.843Z,52.80
2023-02-12T04:50:22.746Z,43.85
2023-02-12T04:52:50.705Z,40.38
2023-02-12T04:55:18.761Z,55.58
2023-02-12T04:57:46.593Z,29.58
2023-02-12T05:00:15.101Z,52.63
2023-02-12T05:02:43.006Z,60.40
2023-02-12T05:05:10.950Z,53.38
2023-02-12T05:07:38.800Z,47.35
2023-02-12T05:10:07.045Z,56.78
2023-02-12T05:12:35.010Z,38.63
2023-02-12T05:15:02.714Z,65.47
2023-02-12T05:17:30.678Z,41.80
2023-02-12T05:19:58.598Z,57.20
2023-02-12T05:22:26.493Z,33.92
2023-02-12T05:24:54.194Z,72.95
2023-02-12T05:27:22.033Z,79.10
2023-02-12T05:29:49.865Z,72.05
2023-02-12T05:32:17.641Z,40.65
2023-02-12T05:34:45.380Z,75.20
2023-02-12T05:37:13.263Z,63.13
2023-02-12T05:39:40.960Z,64.45
2023-02-12T05:42:08.755Z,70.70
2023-02-12T05:44:36.695Z,54.58
2023-02-12T05:47:04.700Z,80.85
2023-02-12T05:49:32.408Z,65.97
2023-02-12T05:52:00.347Z,85.53
2023-02-12T05:54:30.957Z,67.22
2023-02-12T05:56:58.863Z,58.75
2023-02-12T05:59:26.631Z,68.93
2023-02-12T06:01:54.626Z,40.40
2023-02-12T06:04:24.446Z,55.13
2023-02-12T06:06:56.299Z,28.38
2023-02-12T06:09:24.599Z,34.72
2023-02-12T06:11:52.590Z,34.95
2023-02-12T06:14:20.859Z,30.30
2023-02-12T06:16:49.703Z,22.98
2023-02-12T06:19:17.904Z,32.55
2023-02-12T06:21:45.852Z,27.08
2023-02-12T06:24:16.038Z,39.72
2023-02-12T06:26:43.861Z,25.75
2023-02-12T06:29:12.068Z,21.75
2023-02-12T06:31:39.914Z,32.53
2023-02-12T06:34:09.297Z,29.13
2023-02-12T06:36:42.056Z,25.27
2023-02-12T06:39:10.058Z,26.42
2023-02-12T06:41:37.859Z,28.55
2023-02-12T06:44:06.267Z,9.90
2023-02-12T06:46:34.166Z,32.10
2023-02-12T06:49:01.973Z,25.42
2023-02-12T06:51:29.979Z,28.80
2023-02-12T06:53:57.950Z,29.98
2023-02-12T06:56:26.819Z,23.45
2023-02-12T06:58:56.410Z,24.05
2023-02-12T07:01:26.496Z,27.45
2023-02-12T07:03:56.191Z,30.83
2023-02-12T07:06:24.333Z,22.83
2023-02-12T07:08:52.324Z,23.70
2023-02-12T07:11:21.354Z,27.08
2023-02-12T07:13:49.125Z,28.83
2023-02-12T07:16:17.260Z,25.52
2023-02-12T07:18:45.320Z,23.02
2023-02-12T07:21:13.850Z,9.52
2023-02-12T07:23:41.658Z,22.88
2023-02-12T07:26:11.951Z,14.48
2023-02-12T07:28:39.889Z,32.67
2023-02-12T07:31:09.232Z,21.48
2023-02-12T07:33:37.387Z,27.00
2023-02-12T07:36:06.562Z,16.33
2023-02-12T07:38:36.796Z,28.88
2023-02-12T07:41:12.818Z,26.35
2023-02-12T07:43:42.425Z,19.05
2023-02-12T07:46:19.364Z,17.95
2023-02-12T07:48:47.620Z,33.40
2023-02-12T07:51:16.698Z,27.98
2023-02-12T07:53:44.604Z,29.67
2023-02-12T07:56:15.045Z,31.45
2023-02-12T07:58:45.430Z,27.27
2023-02-12T08:01:14.775Z,23.70
2023-02-12T08:03:43.018Z,24.40
2023-02-12T08:06:12.598Z,37.70
2023-02-12T08:08:42.635Z,33.70
2023-02-12T08:11:10.802Z,19.65
2023-02-12T08:13:38.897Z,29.95
2023-02-12T08:16:14.721Z,20.75
2023-02-12T08:18:43.122Z,19.20
2023-02-12T08:21:21.584Z,28.20
2023-02-12T08:23:52.408Z,20.13
2023-02-12T08:26:24.996Z,21.92
2023-02-12T08:28:55.099Z,15.93
2023-02-12T08:31:27.518Z,23.13
2023-02-12T08:36:27.594Z,23.17
2023-02-12T08:38:57.829Z,25.05
2023-02-12T08:41:27.693Z,25.92
2023-02-12T08:43:57.240Z,20.63
2023-02-12T08:46:27.025Z,22.58
2023-02-12T08:48:57.195Z,27.15
2023-02-12T08:51:28.033Z,23.40
2023-02-12T08:53:57.660Z,15.57
2023-02-12T08:56:25.619Z,26.25
2023-02-12T08:58:53.863Z,20.60
2023-02-12T09:01:23.198Z,19.80
2023-02-12T09:03:51.747Z,20.42
2023-02-12T09:06:21.945Z,24.73
2023-02-12T09:08:49.947Z,20.60
2023-02-12T09:11:19.874Z,21.52
2023-02-12T09:13:48.121Z,17.50
2023-02-12T09:16:16.014Z,19.35
2023-02-12T09:18:44.245Z,16.90
2023-02-12T09:21:17.323Z,19.15
2023-02-12T09:23:45.408Z,19.95
2023-02-12T09:26:15.963Z,18.80
2023-02-12T09:28:44.323Z,19.40
2023-02-12T09:31:13.885Z,14.05
2023-02-12T09:33:42.318Z,19.38
2023-02-12T09:36:13.082Z,20.55
2023-02-12T09:38:41.050Z,19.67
2023-02-12T09:41:43.964Z,19.00
2023-02-12T09:44:41.183Z,17.33
2023-02-12T09:47:30.903Z,18.90
2023-02-12T09:50:17.478Z,18.83
2023-02-12T09:52:45.615Z,17.85
2023-02-12T09:55:16.982Z,18.40
2023-02-12T09:57:44.955Z,18.50
2023-02-12T10:00:22.835Z,19.25
2023-02-12T10:02:52.669Z,14.85
2023-02-12T10:05:24.425Z,17.75
2023-02-12T10:08:18.552Z,17.60
2023-02-12T10:11:10.023Z,22.08
2023-02-12T10:14:07.952Z,22.85
2023-02-12T10:17:03.553Z,14.10
2023-02-12T10:20:04.112Z,13.60
2023-02-12T10:22:57.442Z,10.70
2023-02-12T10:25:59.418Z,10.15
2023-02-12T10:28:32.178Z,8.93
2023-02-12T10:31:12.675Z,11.57
2023-02-12T10:33:45.696Z,8.02
2023-02-12T10:36:41.983Z,11.18
2023-02-12T10:39:16.027Z,7.97
2023-02-12T10:42:11.462Z,7.07
2023-02-12T10:44:39.518Z,10.05
2023-02-12T10:47:10.976Z,11.82
2023-02-12T10:49:39.014Z,12.93
2023-02-12T10:52:10.165Z,10.65
2023-02-12T10:54:46.059Z,9.70
2023-02-12T10:57:24.689Z,10.25
2023-02-12T10:59:54.757Z,8.77
2023-02-12T11:02:28.224Z,8.40
2023-02-12T11:04:57.200Z,9.25
2023-02-12T11:07:25.704Z,9.95
2023-02-12T11:09:54.793Z,13.45
2023-02-12T11:12:48.732Z,10.38
2023-02-12T11:15:21.760Z,5.53
2023-02-12T11:18:01.944Z,8.98
2023-02-12T11:20:35.300Z,10.55
2023-02-12T11:23:04.830Z,9.88
2023-02-12T11:25:34.844Z,9.18
2023-02-12T11:28:17.861Z,10.40
2023-02-12T11:30:56.706Z,11.82
2023-02-12T11:33:33.119Z,10.48
2023-02-12T11:36:15.630Z,12.02
2023-02-12T11:39:03.745Z,10.35
2023-02-12T11:41:42.392Z,11.25
2023-02-12T11:44:21.899Z,11.88
2023-02-12T11:46:51.462Z,12.15
2023-02-12T11:49:22.491Z,12.98
2023-02-12T11:51:50.434Z,10.52
2023-02-12T11:54:21.052Z,12.68
2023-02-12T11:56:49.061Z,10.90
2023-02-12T11:59:34.219Z,10.80
2023-02-12T12:02:23.516Z,11.40
2023-02-12T12:04:52.838Z,8.10
2023-02-12T12:07:32.993Z,11.15
2023-02-12T12:10:16.855Z,8.27
2023-02-12T12:12:58.586Z,10.55
2023-02-12T12:15:55.804Z,8.52
2023-02-12T12:18:45.204Z,10.20
2023-02-12T12:21:34.907Z,8.45
2023-02-12T12:24:32.421Z,10.88
2023-02-12T12:27:46.659Z,10.68
2023-02-12T12:30:42.648Z,12.20
2023-02-12T12:33:31.485Z,5.30
2023-02-12T12:36:43.741Z,12.40
2023-02-12T12:39:33.670Z,10.75
2023-02-12T12:42:32.127Z,11.75
2023-02-12T12:45:32.243Z,6.75
2023-02-12T12:48:12.161Z,8.05
2023-02-12T12:51:22.284Z,10.23
2023-02-12T12:53:59.416Z,12.90
2023-02-12T12:56:37.616Z,11.73
2023-02-12T12:59:26.268Z,13.05
2023-02-12T13:02:36.955Z,10.98
2023-02-12T13:05:38.781Z,12.77
2023-02-12T13:08:25.949Z,12.68
2023-02-12T13:11:13.591Z,11.07
2023-02-12T13:13:47.573Z,13.50
2023-02-12T13:16:16.074Z,11.65
2023-02-12T13:19:15.155Z,9.63
2023-02-12T13:22:01.737Z,11.88
2023-02-12T13:24:36.039Z,10.93
2023-02-12T13:27:06.846Z,11.60
2023-02-12T13:29:45.784Z,12.13
2023-02-12T13:32:34.292Z,13.50
2023-02-12T13:35:02.143Z,9.93
2023-02-12T13:37:45.289Z,12.60
2023-02-12T13:40:21.601Z,12.80
2023-02-12T13:43:23.611Z,13.75
2023-02-12T13:46:16.405Z,12.57
2023-02-12T13:49:12.067Z,11.55
2023-02-12T13:51:50.182Z,11.55
2023-02-12T13:54:43.204Z,12.77
2023-02-12T13:57:18.378Z,13.70
2023-02-12T13:59:56.935Z,12.55
2023-02-12T14:02:38.429Z,14.32
2023-02-12T14:05:16.939Z,13.50
2023-02-12T14:07:52.305Z,12.90
2023-02-12T14:10:32.201Z,14.68
2023-02-12T14:13:13.216Z,14.57
2023-02-12T14:15:46.357Z,12.10
2023-02-12T14:18:34.566Z,14.30
2023-02-12T14:21:17.038Z,12.25
2023-02-12T14:23:46.532Z,16.65
2023-02-12T14:26:18.440Z,17.83
2023-02-12T14:29:03.056Z,15.50
2023-02-12T14:31:38.110Z,17.92
2023-02-12T14:34:06.289Z,20.00
2023-02-12T14:36:39.367Z,17.45
2023-02-12T14:39:28.135Z,19.65
2023-02-12T14:42:11.315Z,19.13
2023-02-12T14:44:45.597Z,18.80
2023-02-12T14:47:17.697Z,16.13
2023-02-12T14:49:51.239Z,16.88
2023-02-12T14:52:27.525Z,9.25
2023-02-12T14:54:56.250Z,14.57
2023-02-12T14:57:34.426Z,10.68
2023-02-12T15:00:11.740Z,7.28
2023-02-12T15:02:40.372Z,10.02
2023-02-12T15:05:15.575Z,14.45
2023-02-12T15:07:52.896Z,11.88
2023-02-12T15:10:22.438Z,11.02
2023-02-12T15:13:02.549Z,10.38
2023-02-12T15:15:45.046Z,11.75
2023-02-12T15:18:36.436Z,11.63
2023-02-12T15:21:22.640Z,8.90
2023-02-12T15:24:10.668Z,9.70
2023-02-12T15:26:48.309Z,8.05
2023-02-12T15:29:30.998Z,13.07
2023-02-12T15:32:03.498Z,9.68
2023-02-12T15:34:34.029Z,7.50
2023-02-12T15:37:03.049Z,11.65
2023-02-12T15:39:50.123Z,15.43
2023-02-12T15:42:53.187Z,14.95
2023-02-12T15:45:26.188Z,12.82
2023-02-12T15:48:14.251Z,12.60
2023-02-12T15:51:11.737Z,14.48
2023-02-12T15:53:39.682Z,14.85
2023-02-12T15:56:13.068Z,7.10
2023-02-12T15:58:48.674Z,17.75
2023-02-12T16:01:21.644Z,21.02
2023-02-12T16:03:52.030Z,20.48
2023-02-12T16:06:20.648Z,26.15
2023-02-12T16:09:07.872Z,20.10
2023-02-12T16:11:36.616Z,12.88
2023-02-12T16:14:21.520Z,10.43
2023-02-12T16:16:53.220Z,10.38
2023-02-12T16:19:33.266Z,12.02
2023-02-12T16:22:06.183Z,13.95
2023-02-12T16:24:34.795Z,11.68
2023-02-12T16:27:16.100Z,10.35
2023-02-12T16:29:51.472Z,9.70
2023-02-12T16:32:41.329Z,9.05
2023-02-12T16:35:13.136Z,10.93
2023-02-12T16:37:46.391Z,10.77
2023-02-12T16:40:14.544Z,9.13
2023-02-12T16:42:48.665Z,9.15
2023-02-12T16:45:26.906Z,9.95
2023-02-12T16:48:18.761Z,8.73
2023-02-12T16:50:49.862Z,7.82
2023-02-12T16:53:34.510Z,9.20
2023-02-12T16:56:03.683Z,9.57
2023-02-12T16:58:31.730Z,7.68
2023-02-12T17:01:02.179Z,7.85
2023-02-12T17:03:30.298Z,9.45
2023-02-12T17:06:01.646Z,7.72
2023-02-12T17:08:30.715Z,6.07
2023-02-12T17:10:59.020Z,10.68
2023-02-12T17:13:27.185Z,11.07
2023-02-12T17:15:59.874Z,8.60
2023-02-12T17:18:29.181Z,9.32
2023-02-12T17:21:02.670Z,10.05
2023-02-12T17:23:31.095Z,9.98
2023-02-12T17:25:59.163Z,11.73
2023-02-12T17:28:27.649Z,11.65
2023-02-12T17:30:55.889Z,9.75
2023-02-12T17:33:24.690Z,10.63
2023-02-12T17:35:52.539Z,11.98
2023-02-12T17:38:20.572Z,15.23
2023-02-12T17:40:48.819Z,14.48
2023-02-12T17:43:16.632Z,7.53
2023-02-12T17:45:44.527Z,21.10
2023-02-12T17:48:13.447Z,8.38
2023-02-12T17:50:41.947Z,13.35
2023-02-12T17:53:10.288Z,11.85
2023-02-12T17:55:41.301Z,11.00
2023-02-12T17:58:09.222Z,13.40
2023-02-12T18:00:37.037Z,11.20
2023-02-12T18:03:07.851Z,15.52
2023-02-12T18:05:41.689Z,15.45
2023-02-12T18:08:10.472Z,12.93
2023-02-12T18:10:42.181Z,12.35
2023-02-12T18:15:39.801Z,19.92
2023-02-12T18:18:08.170Z,18.63
2023-02-12T18:20:36.117Z,20.00
2023-02-12T18:23:04.903Z,16.83
2023-02-12T18:25:32.968Z,12.50
2023-02-12T18:28:01.945Z,11.95
2023-02-12T18:30:30.847Z,14.23
2023-02-12T18:32:58.875Z,13.93
2023-02-12T18:35:26.986Z,13.88
2023-02-12T18:37:55.248Z,14.77
2023-02-12T18:40:23.067Z,14.68
2023-02-12T18:42:51.074Z,14.90
2023-02-12T18:45:19.840Z,22.98
2023-02-12T18:47:48.236Z,26.60
2023-02-12T18:50:19.351Z,20.73
2023-02-12T18:52:47.214Z,17.08
2023-02-12T18:55:15.314Z,26.23
2023-02-12T18:57:43.022Z,24.40
2023-02-12T19:00:11.539Z,23.70
2023-02-12T19:02:39.626Z,25.70
2023-02-12T19:05:10.491Z,20.67
2023-02-12T19:07:38.582Z,23.98
2023-02-12T19:10:07.479Z,17.80
2023-02-12T19:12:35.206Z,21.45
2023-02-12T19:15:03.456Z,20.20
2023-02-12T19:17:31.102Z,17.13
2023-02-12T19:19:59.180Z,14.27
2023-02-12T19:22:27.303Z,17.20
2023-02-12T19:24:55.462Z,20.92
2023-02-12T19:27:23.244Z,24.23
2023-02-12T19:29:51.260Z,29.63
2023-02-12T19:32:19.360Z,26.25
2023-02-12T19:34:47.427Z,27.80
2023-02-12T19:37:15.242Z,20.80
2023-02-12T19:39:43.177Z,22.73
2023-02-12T19:42:12.914Z,22.52
2023-02-12T19:44:41.223Z,24.60
2023-02-12T19:47:09.624Z,22.92
2023-02-12T19:49:38.530Z,23.20
2023-02-12T19:52:06.617Z,17.23
2023-02-12T19:54:35.023Z,23.00
2023-02-12T19:57:04.222Z,19.00
2023-02-12T19:59:32.573Z,24.30
2023-02-12T20:02:00.393Z,18.48
2023-02-12T20:04:28.148Z,21.58
2023-02-12T20:06:56.386Z,13.00
2023-02-12T20:09:24.144Z,24.50
2023-02-12T20:11:52.464Z,23.67
2023-02-12T20:14:21.195Z,20.25
2023-02-12T20:16:50.389Z,19.80
2023-02-12T20:19:23.487Z,23.13
2023-02-12T20:21:55.571Z,19.58
2023-02-12T20:24:25.013Z,19.23
2023-02-12T20:26:53.223Z,20.20
2023-02-12T20:29:21.656Z,20.92
2023-02-12T20:31:50.017Z,19.60
2023-02-12T20:34:19.431Z,18.73
2023-02-12T20:36:47.444Z,21.58
2023-02-12T20:39:17.956Z,21.23
2023-02-12T20:41:45.682Z,22.83
2023-02-12T20:44:16.778Z,23.70
2023-02-12T20:46:54.597Z,27.02
2023-02-12T20:49:25.586Z,22.38
2023-02-12T20:51:53.425Z,22.88
2023-02-12T20:54:21.416Z,23.13
2023-02-12T20:56:49.867Z,24.42
2023-02-12T20:59:18.774Z,28.50
2023-02-12T21:01:47.240Z,30.65
2023-02-12T21:04:17.529Z,30.42
2023-02-12T21:06:46.277Z,41.80
2023-02-12T21:09:14.593Z,41.50
2023-02-12T21:11:42.976Z,40.13
2023-02-12T21:14:26.783Z,40.53
2023-02-12T21:16:56.883Z,41.47
2023-02-12T21:19:25.296Z,40.30
2023-02-12T21:21:53.484Z,45.97
2023-02-12T21:24:24.421Z,45.08
2023-02-12T21:26:52.935Z,41.90
2023-02-12T21:29:20.870Z,47.50
2023-02-12T21:31:49.955Z,51.60
2023-02-12T21:34:19.834Z,52.30
2023-02-12T21:36:48.536Z,51.08
2023-02-12T21:39:26.530Z,44.60
2023-02-12T21:41:56.217Z,46.92
2023-02-12T21:44:24.578Z,46.83
2023-02-12T21:46:52.531Z,47.53
2023-02-12T21:49:28.343Z,40.53
2023-02-12T21:51:58.396Z,38.22
2023-02-12T21:54:26.786Z,52.03
2023-02-12T21:56:54.894Z,46.20
2023-02-12T21:59:23.290Z,50.13
2023-02-12T22:01:52.827Z,59.03
2023-02-12T22:04:20.925Z,63.78
2023-02-12T22:06:50.072Z,57.47
2023-02-12T22:09:19.815Z,58.92
2023-02-12T22:11:47.926Z,60.55
2023-02-12T22:14:17.344Z,66.63
2023-02-12T22:16:45.349Z,58.08
2023-02-12T22:19:13.199Z,65.97
2023-02-12T22:21:41.503Z,63.25
2023-02-12T22:24:12.821Z,68.13
2023-02-12T22:26:40.756Z,67.18
2023-02-12T22:29:10.405Z,73.55
2023-02-12T22:31:40.529Z,68.60
2023-02-12T22:34:11.792Z,52.63
2023-02-12T22:36:40.157Z,62.50
2023-02-12T22:39:08.227Z,68.03
2023-02-12T22:41:36.163Z,64.53
2023-02-12T22:44:07.244Z,62.47
2023-02-12T22:46:36.805Z,63.88
2023-02-12T22:49:05.019Z,59.72
2023-02-12T22:51:33.436Z,65.60
2023-02-12T22:54:01.270Z,62.80
2023-02-12T22:56:29.388Z,53.33
2023-02-12T22:58:58.296Z,52.40
2023-02-12T23:01:26.501Z,54.03
2023-02-12T23:03:54.711Z,59.83
2023-02-12T23:06:24.694Z,72.60
2023-02-12T23:08:53.839Z,73.50
2023-02-12T23:11:22.080Z,57.22
2023-02-12T23:13:49.776Z,60.42
2023-02-12T23:16:18.218Z,45.67
2023-02-12T23:18:46.295Z,60.72
2023-02-12T23:21:14.294Z,70.63
2023-02-12T23:23:42.109Z,57.65
2023-02-12T23:26:10.148Z,27.73
2023-02-12T23:28:38.090Z,68.65
2023-02-12T23:31:06.130Z,77.07
2023-02-12T23:33:34.108Z,73.28
2023-02-12T23:36:02.119Z,76.18
2023-02-12T23:38:30.195Z,76.80
2023-02-12T23:40:58.688Z,78.22
2023-02-12T23:43:26.533Z,68.55
2023-02-12T23:45:54.832Z,72.63
2023-02-12T23:48:22.657Z,73.75
2023-02-12T23:50:51.169Z,81.85
2023-02-12T23:53:19.743Z,74.82
2023-02-12T23:55:49.392Z,78.78
2023-02-12T23:58:17.832Z,76.40
